Time;durP1;ratioP1;P1;durP2;ratioP2;P2;SDS_P1;SDS_P2;PMS_P1;PMS_P2;Temp;Humidity;BMP_temperature;BMP_pressure;BME280_temperature;BME280_humidity;BME280_pressure;Samples;Min_cycle;Max_cycle;Signal;HPM_P1;HPM_P2
2021/01/05 00:01:05;;;;;;;26.00;16.43;;;3.20;99.90;;;;;;5142702;27;20511;-27
2021/01/05 00:03:32;;;;;;;23.13;15.67;;;3.20;99.90;;;;;;5153644;27;20484;-27
2021/01/05 00:05:58;;;;;;;19.70;14.50;;;3.20;99.90;;;;;;5152875;27;20916;-27
2021/01/05 00:08:27;;;;;;;18.83;14.27;;;3.20;99.90;;;;;;5148016;27;20438;-26
2021/01/05 00:10:54;;;;;;;22.50;15.17;;;3.20;99.90;;;;;;5131000;28;20457;-27
2021/01/05 00:13:21;;;;;;;21.97;14.00;;;3.20;99.90;;;;;;5126243;27;20483;-27
2021/01/05 00:15:49;;;;;;;18.30;13.50;;;3.20;99.90;;;;;;5111977;28;20757;-26
2021/01/05 00:18:17;;;;;;;18.33;14.80;;;3.20;99.90;;;;;;5111433;28;20530;-27
2021/01/05 00:20:44;;;;;;;20.67;14.27;;;3.20;99.90;;;;;;5111590;28;20826;-27
2021/01/05 00:23:12;;;;;;;20.70;14.43;;;3.20;99.90;;;;;;5111399;28;20442;-27
2021/01/05 00:25:39;;;;;;;22.67;15.77;;;3.30;99.90;;;;;;5111910;28;20463;-26
2021/01/05 00:28:06;;;;;;;23.60;15.63;;;3.30;99.90;;;;;;5112066;28;20493;-27
2021/01/05 00:30:33;;;;;;;18.93;15.30;;;3.30;99.90;;;;;;5111001;28;20530;-26
2021/01/05 00:33:01;;;;;;;17.33;14.50;;;3.40;99.90;;;;;;5110903;28;20495;-26
2021/01/05 00:35:30;;;;;;;21.97;15.03;;;3.40;99.90;;;;;;5111256;28;21057;-27
2021/01/05 00:37:56;;;;;;;22.03;13.83;;;3.40;99.90;;;;;;5111819;28;20435;-26
2021/01/05 00:40:26;;;;;;;23.07;15.67;;;3.40;99.90;;;;;;5113918;28;20465;-27
2021/01/05 00:42:54;;;;;;;21.00;15.67;;;3.40;99.90;;;;;;5116072;28;20442;-26
2021/01/05 00:45:26;;;;;;;22.60;15.10;;;3.50;99.90;;;;;;5115295;28;20471;-26
2021/01/05 00:47:54;;;;;;;21.93;16.47;;;3.50;99.90;;;;;;5116470;28;20783;-27
2021/01/05 00:50:21;;;;;;;21.03;15.97;;;3.50;99.90;;;;;;5115293;28;20451;-25
2021/01/05 00:52:49;;;;;;;20.87;15.10;;;3.50;99.90;;;;;;5114701;28;21116;-26
2021/01/05 00:55:17;;;;;;;19.17;15.00;;;3.30;99.90;;;;;;5097155;28;20442;-26
2021/01/05 00:57:47;;;;;;;17.70;14.07;;;3.40;99.90;;;;;;5096802;28;20477;-27
2021/01/05 01:00:24;;;;;;;19.40;14.87;;;3.40;99.90;;;;;;5096253;28;20491;-26
2021/01/05 01:02:53;;;;;;;19.40;15.27;;;3.50;99.90;;;;;;5096074;28;21049;-27
2021/01/05 01:05:25;;;;;;;19.40;14.63;;;3.50;99.90;;;;;;5096634;28;20555;-25
2021/01/05 01:07:54;;;;;;;19.53;14.00;;;3.50;99.90;;;;;;5097146;28;20431;-27
2021/01/05 01:10:26;;;;;;;18.90;15.30;;;3.50;99.90;;;;;;5097032;28;20500;-26
2021/01/05 01:12:54;;;;;;;22.67;16.30;;;3.50;99.90;;;;;;5096607;28;20463;-27
2021/01/05 01:15:22;;;;;;;19.60;16.27;;;3.50;99.90;;;;;;5116751;27;20511;-28
2021/01/05 01:17:50;;;;;;;22.50;15.37;;;3.50;99.90;;;;;;5111402;27;20475;-26
2021/01/05 01:20:19;;;;;;;21.70;14.43;;;3.50;99.90;;;;;;5096309;28;20847;-27
2021/01/05 01:22:50;;;;;;;20.50;14.83;;;3.50;99.90;;;;;;5114383;28;20434;-28
2021/01/05 01:25:20;;;;;;;18.23;14.77;;;3.40;99.90;;;;;;5097056;28;20439;-27
2021/01/05 01:27:49;;;;;;;16.70;12.60;;;3.50;99.90;;;;;;5115944;27;20446;-26
2021/01/05 01:30:26;;;;;;;19.40;13.53;;;3.50;99.90;;;;;;5113394;28;20466;-27
2021/01/05 01:33:01;;;;;;;21.50;15.60;;;3.50;99.90;;;;;;5113650;28;20430;-26
2021/01/05 01:35:32;;;;;;;23.33;16.00;;;3.50;99.90;;;;;;5113025;28;20538;-26
2021/01/05 01:37:59;;;;;;;19.97;13.70;;;3.50;99.90;;;;;;5099843;27;20531;-27
2021/01/05 01:40:35;;;;;;;17.10;14.80;;;3.60;99.90;;;;;;5096454;28;20439;-27
2021/01/05 01:43:06;;;;;;;17.27;13.00;;;3.60;99.90;;;;;;5096045;28;20734;-26
2021/01/05 01:45:34;;;;;;;19.67;15.27;;;3.60;99.90;;;;;;5114438;28;20435;-27
2021/01/05 01:48:06;;;;;;;23.40;15.50;;;3.70;99.90;;;;;;5130341;27;20983;-27
2021/01/05 01:50:35;;;;;;;24.70;15.00;;;3.70;99.90;;;;;;5114105;27;20510;-27
2021/01/05 01:53:41;;;;;;;21.40;15.10;;;3.70;99.90;;;;;;5095852;28;20455;-26
2021/01/05 01:56:28;;;;;;;19.97;14.70;;;3.80;99.90;;;;;;5115722;27;20435;-27
2021/01/05 01:59:24;;;;;;;24.00;15.23;;;3.80;99.90;;;;;;5137803;27;20445;-27
2021/01/05 02:01:59;;;;;;;21.03;14.30;;;3.80;99.90;;;;;;5136463;27;20440;-26
2021/01/05 02:04:50;;;;;;;22.30;15.27;;;3.80;99.90;;;;;;5155866;27;20429;-26
2021/01/05 02:07:44;;;;;;;20.47;15.10;;;3.80;99.90;;;;;;5113747;27;20493;-27
2021/01/05 02:10:55;;;;;;;20.30;16.10;;;3.80;99.90;;;;;;5112530;28;21015;-27
2021/01/05 02:13:55;;;;;;;20.80;14.07;;;3.80;99.90;;;;;;5112768;28;20435;-26
2021/01/05 02:16:35;;;;;;;20.90;15.50;;;3.80;99.90;;;;;;5117580;27;20919;-28
2021/01/05 02:19:17;;;;;;;24.73;16.90;;;3.80;99.90;;;;;;5136511;27;20443;-28
2021/01/05 02:22:03;;;;;;;21.50;15.50;;;3.80;99.90;;;;;;5136622;27;20536;-27
2021/01/05 02:24:46;;;;;;;23.67;16.30;;;3.80;99.90;;;;;;5150761;27;20475;-27
2021/01/05 02:27:15;;;;;;;27.50;17.10;;;3.80;99.90;;;;;;5136792;27;20460;-26
2021/01/05 02:29:54;;;;;;;23.87;16.30;;;3.80;99.90;;;;;;5155027;27;20468;-27
2021/01/05 02:32:38;;;;;;;23.80;16.83;;;3.80;99.90;;;;;;5136511;27;20543;-27
2021/01/05 02:35:40;;;;;;;21.87;15.13;;;3.70;99.90;;;;;;5121361;27;20522;-26
2021/01/05 02:38:45;;;;;;;24.57;16.83;;;3.80;99.90;;;;;;5092051;28;20488;-26
2021/01/05 02:41:46;;;;;;;27.53;16.70;;;3.80;99.90;;;;;;5112982;27;20984;-26
2021/01/05 02:44:37;;;;;;;22.40;16.80;;;3.80;99.90;;;;;;5112927;28;20460;-26
2021/01/05 02:47:36;;;;;;;26.07;16.70;;;3.90;99.90;;;;;;5120411;27;20742;-27
2021/01/05 02:50:41;;;;;;;23.47;17.40;;;3.90;99.90;;;;;;5154507;27;20443;-27
2021/01/05 02:53:58;;;;;;;24.63;15.70;;;3.90;99.90;;;;;;5153174;27;20445;-27
2021/01/05 02:57:08;;;;;;;26.73;17.00;;;3.90;99.90;;;;;;5155509;27;20493;-27
2021/01/05 03:00:38;;;;;;;23.80;16.20;;;3.90;99.90;;;;;;5153885;27;20433;-26
2021/01/05 03:03:42;;;;;;;24.30;17.80;;;3.90;99.90;;;;;;5152074;27;20744;-26
2021/01/05 03:06:36;;;;;;;23.40;17.00;;;3.80;99.90;;;;;;5154619;27;20918;-27
2021/01/05 03:09:58;;;;;;;23.00;16.70;;;3.70;99.90;;;;;;5155314;27;20433;-27
2021/01/05 03:13:19;;;;;;;21.97;17.83;;;3.70;99.90;;;;;;5148423;27;20557;-26
2021/01/05 03:16:11;;;;;;;27.23;17.90;;;3.70;99.90;;;;;;5132740;27;20430;-27
2021/01/05 03:19:05;;;;;;;26.87;17.93;;;3.70;99.90;;;;;;5134200;27;20446;-26
2021/01/05 03:21:54;;;;;;;25.53;17.57;;;3.80;99.90;;;;;;5133658;27;20827;-27
2021/01/05 03:24:43;;;;;;;23.33;16.37;;;3.80;99.90;;;;;;5133998;27;20438;-27
2021/01/05 03:27:30;;;;;;;20.47;15.60;;;3.80;99.90;;;;;;5133139;27;20477;-27
2021/01/05 03:30:26;;;;;;;21.67;14.60;;;3.80;99.90;;;;;;5133713;27;20430;-27
2021/01/05 03:33:13;;;;;;;23.03;16.03;;;3.80;99.90;;;;;;5141187;27;20547;-27
2021/01/05 03:35:58;;;;;;;25.03;16.07;;;3.70;99.90;;;;;;5154599;27;20547;-26
2021/01/05 03:38:44;;;;;;;23.00;15.97;;;3.60;99.90;;;;;;5154054;27;20791;-27
2021/01/05 03:41:31;;;;;;;23.90;16.13;;;3.60;99.90;;;;;;5153172;27;21085;-26
2021/01/05 03:44:18;;;;;;;25.77;17.77;;;3.60;99.90;;;;;;5139027;27;20564;-27
2021/01/05 03:47:03;;;;;;;20.50;15.30;;;3.60;99.90;;;;;;5132769;27;20895;-27
2021/01/05 03:49:50;;;;;;;21.50;14.47;;;3.60;99.90;;;;;;5132697;27;20521;-27
2021/01/05 03:52:36;;;;;;;17.17;13.80;;;3.50;99.90;;;;;;5131862;27;20515;-26
2021/01/05 03:55:22;;;;;;;24.00;16.23;;;3.50;99.90;;;;;;5132594;27;20425;-27
2021/01/05 03:58:08;;;;;;;23.63;15.90;;;3.50;99.90;;;;;;5132680;27;20745;-27
2021/01/05 04:00:53;;;;;;;21.37;14.43;;;3.50;99.90;;;;;;5131459;27;20495;-26
2021/01/05 04:03:21;;;;;;;23.40;16.50;;;3.40;99.90;;;;;;5136267;27;20476;-27
2021/01/05 04:05:49;;;;;;;25.33;17.67;;;3.30;99.90;;;;;;5152507;27;20463;-26
2021/01/05 04:08:16;;;;;;;26.23;16.30;;;3.30;99.90;;;;;;5145841;27;20434;-27
2021/01/05 04:10:44;;;;;;;25.10;16.33;;;3.30;99.90;;;;;;5130400;28;20441;-27
2021/01/05 04:13:12;;;;;;;20.33;16.57;;;3.30;99.90;;;;;;5143919;27;20444;-27
2021/01/05 04:15:39;;;;;;;20.97;15.70;;;3.30;99.90;;;;;;5141386;27;20488;-26
2021/01/05 04:18:06;;;;;;;22.80;15.83;;;3.30;99.90;;;;;;5146405;27;20448;-27
2021/01/05 04:20:33;;;;;;;20.37;15.67;;;3.30;99.90;;;;;;5146363;27;20556;-27
2021/01/05 04:23:05;;;;;;;22.03;15.63;;;3.40;99.90;;;;;;5145056;27;20930;-27
2021/01/05 04:25:33;;;;;;;23.03;15.10;;;3.50;99.90;;;;;;5145627;27;20513;-28
2021/01/05 04:28:01;;;;;;;17.37;15.10;;;3.50;99.90;;;;;;5141704;27;20866;-29
2021/01/05 04:30:31;;;;;;;24.00;16.20;;;3.40;99.90;;;;;;5145425;27;20548;-27
2021/01/05 04:33:01;;;;;;;24.30;16.73;;;3.40;99.90;;;;;;5140435;27;20434;-28
2021/01/05 04:35:29;;;;;;;20.10;15.73;;;3.40;99.90;;;;;;5145269;27;20438;-27
2021/01/05 04:38:00;;;;;;;25.47;16.80;;;3.40;99.90;;;;;;5143197;27;20811;-27
2021/01/05 04:40:36;;;;;;;23.70;16.10;;;3.30;99.90;;;;;;5145212;27;20529;-27
2021/01/05 04:43:23;;;;;;;22.03;16.60;;;3.40;99.90;;;;;;5142240;27;20430;-27
2021/01/05 04:46:01;;;;;;;26.30;17.07;;;3.40;99.90;;;;;;5141203;27;20850;-28
2021/01/05 04:48:40;;;;;;;23.53;16.80;;;3.40;99.90;;;;;;5145571;27;20516;-26
2021/01/05 04:51:19;;;;;;;25.87;17.47;;;3.40;99.90;;;;;;5125379;27;20485;-26
2021/01/05 04:53:54;;;;;;;28.17;18.67;;;3.40;99.90;;;;;;5142233;27;20516;-27
2021/01/05 04:56:28;;;;;;;26.37;16.90;;;3.50;99.90;;;;;;5139152;27;20492;-26
2021/01/05 04:58:58;;;;;;;26.17;16.43;;;3.50;99.90;;;;;;5139311;27;20437;-26
2021/01/05 05:01:29;;;;;;;25.10;16.97;;;3.60;99.90;;;;;;5140335;27;20437;-27
2021/01/05 05:04:06;;;;;;;25.37;17.93;;;3.60;99.90;;;;;;5139574;27;20480;-26
2021/01/05 05:06:42;;;;;;;26.53;17.73;;;3.60;99.90;;;;;;5142621;27;21099;-27
2021/01/05 05:09:37;;;;;;;29.37;17.97;;;3.60;99.90;;;;;;5150461;27;20559;-28
2021/01/05 05:12:23;;;;;;;28.90;17.13;;;3.60;99.90;;;;;;5150792;27;20472;-26
2021/01/05 05:14:58;;;;;;;24.23;17.20;;;3.60;99.90;;;;;;5133165;27;20457;-27
2021/01/05 05:17:42;;;;;;;23.67;15.40;;;3.50;99.90;;;;;;5132651;27;20434;-26
2021/01/05 05:20:23;;;;;;;29.03;18.73;;;3.50;99.90;;;;;;5131030;27;20492;-26
2021/01/05 05:23:17;;;;;;;23.70;18.60;;;3.50;99.90;;;;;;5137053;27;20441;-26
2021/01/05 05:25:49;;;;;;;19.13;15.53;;;3.50;99.90;;;;;;5151409;27;20445;-26
2021/01/05 05:28:24;;;;;;;28.57;17.30;;;3.40;99.90;;;;;;5150546;27;20436;-26
2021/01/05 05:30:51;;;;;;;26.10;17.87;;;3.30;99.90;;;;;;5151009;27;20436;-26
2021/01/05 05:33:25;;;;;;;28.30;17.50;;;3.30;99.90;;;;;;5149345;27;20441;-26
2021/01/05 05:36:17;;;;;;;26.87;18.07;;;3.30;99.90;;;;;;5150110;27;20444;-26
2021/01/05 05:39:07;;;;;;;26.53;17.63;;;3.30;99.90;;;;;;5150271;27;20436;-28
2021/01/05 05:41:44;;;;;;;31.67;20.70;;;3.40;99.90;;;;;;5148634;27;20449;-26
2021/01/05 05:44:28;;;;;;;27.13;18.17;;;3.40;99.90;;;;;;5130097;27;20897;-26
2021/01/05 05:47:02;;;;;;;24.90;16.27;;;3.50;99.90;;;;;;5127854;27;20523;-26
2021/01/05 05:49:41;;;;;;;28.07;19.30;;;3.50;99.90;;;;;;5128182;27;20509;-26
2021/01/05 05:52:24;;;;;;;22.23;16.30;;;3.60;99.90;;;;;;5124675;27;20430;-26
2021/01/05 05:54:51;;;;;;;34.70;18.37;;;3.60;99.90;;;;;;5125534;27;20434;-26
2021/01/05 05:57:44;;;;;;;30.93;19.13;;;3.60;99.90;;;;;;5125857;27;20499;-26
2021/01/05 06:00:33;;;;;;;24.07;16.20;;;3.70;99.90;;;;;;5099084;27;20518;-26
2021/01/05 06:03:01;;;;;;;56.33;33.70;;;3.70;99.90;;;;;;5143826;27;20448;-26
2021/01/05 06:05:31;;;;;;;37.30;26.87;;;3.70;99.90;;;;;;5146184;27;20437;-26
2021/01/05 06:07:57;;;;;;;29.23;21.07;;;3.70;99.90;;;;;;5144703;27;20477;-26
2021/01/05 06:10:27;;;;;;;26.83;18.57;;;3.70;99.90;;;;;;5145345;27;20876;-25
2021/01/05 06:12:55;;;;;;;25.43;17.30;;;3.70;99.90;;;;;;5109853;27;20450;-26
2021/01/05 06:15:22;;;;;;;30.27;19.03;;;3.60;99.90;;;;;;5124468;27;20553;-26
2021/01/05 06:17:50;;;;;;;22.40;16.47;;;3.50;99.90;;;;;;5124048;27;20923;-26
2021/01/05 06:20:18;;;;;;;28.60;17.40;;;3.40;99.90;;;;;;5122632;27;20571;-26
2021/01/05 06:22:45;;;;;;;25.93;16.80;;;3.40;99.90;;;;;;5135346;27;20726;-25
2021/01/05 06:25:13;;;;;;;26.77;17.60;;;3.40;99.90;;;;;;5140777;27;20960;-26
2021/01/05 06:27:39;;;;;;;27.30;18.70;;;3.40;99.90;;;;;;5139351;27;20472;-26
2021/01/05 06:30:08;;;;;;;33.30;21.60;;;3.50;99.90;;;;;;5140344;27;20536;-28
2021/01/05 06:32:35;;;;;;;33.80;17.93;;;3.50;99.90;;;;;;5137253;27;20903;-27
2021/01/05 06:35:05;;;;;;;25.73;18.00;;;3.50;99.90;;;;;;5137407;27;20444;-27
2021/01/05 06:37:32;;;;;;;26.63;17.00;;;3.50;99.90;;;;;;5137984;27;20498;-26
2021/01/05 06:39:59;;;;;;;26.07;17.30;;;3.50;99.90;;;;;;5138777;27;20497;-27
2021/01/05 06:42:26;;;;;;;26.93;18.30;;;3.40;99.90;;;;;;5134224;27;21052;-27
2021/01/05 06:44:53;;;;;;;29.60;19.30;;;3.40;99.90;;;;;;5136768;27;20494;-27
2021/01/05 06:47:20;;;;;;;28.73;18.37;;;3.40;99.90;;;;;;5136392;27;20576;-27
2021/01/05 06:49:49;;;;;;;31.27;17.83;;;3.30;99.90;;;;;;5130924;27;20469;-26
2021/01/05 06:52:16;;;;;;;22.73;16.30;;;3.30;99.90;;;;;;5133592;27;20437;-27
2021/01/05 06:54:43;;;;;;;23.10;17.17;;;3.30;99.90;;;;;;5130225;27;20684;-25
2021/01/05 06:57:11;;;;;;;27.00;20.27;;;3.20;99.90;;;;;;5123540;27;20744;-26
2021/01/05 06:59:38;;;;;;;24.23;16.23;;;3.30;99.90;;;;;;5118601;27;20446;-26
2021/01/05 07:02:06;;;;;;;26.37;17.47;;;3.30;99.90;;;;;;5116032;27;20461;-28
2021/01/05 07:04:36;;;;;;;27.90;17.60;;;3.20;99.90;;;;;;5115363;27;20765;-27
2021/01/05 07:07:04;;;;;;;27.90;18.73;;;3.20;99.90;;;;;;5093429;27;20461;-27
2021/01/05 07:09:31;;;;;;;26.80;18.20;;;3.30;99.90;;;;;;5093695;27;20937;-27
2021/01/05 07:11:59;;;;;;;26.93;18.77;;;3.30;99.90;;;;;;5118492;27;20491;-27
2021/01/05 07:14:27;;;;;;;24.60;18.13;;;3.40;99.90;;;;;;5117611;27;20426;-27
2021/01/05 07:16:54;;;;;;;28.80;18.97;;;3.40;99.90;;;;;;5112946;27;20497;-27
2021/01/05 07:19:21;;;;;;;27.50;18.10;;;3.40;99.90;;;;;;5107333;27;20610;-26
2021/01/05 07:21:48;;;;;;;23.27;17.63;;;3.40;99.90;;;;;;5094930;27;20466;-27
2021/01/05 07:24:18;;;;;;;22.77;16.73;;;3.50;99.90;;;;;;5089187;27;20450;-26
2021/01/05 07:26:51;;;;;;;26.20;18.60;;;3.50;99.90;;;;;;5088682;27;20517;-27
2021/01/05 07:29:21;;;;;;;23.40;18.23;;;3.50;99.90;;;;;;5087890;27;21105;-26
2021/01/05 07:31:50;;;;;;;33.53;18.40;;;3.50;99.90;;;;;;5091044;27;20443;-26
2021/01/05 07:34:17;;;;;;;24.20;17.50;;;3.50;99.90;;;;;;5090766;27;20482;-27
2021/01/05 07:36:49;;;;;;;26.17;17.83;;;3.40;99.90;;;;;;5091273;27;20439;-27
2021/01/05 07:39:21;;;;;;;24.03;17.70;;;3.40;99.90;;;;;;5081095;27;20470;-27
2021/01/05 07:41:50;;;;;;;28.43;18.20;;;3.50;99.90;;;;;;5089281;27;20462;-26
2021/01/05 07:44:17;;;;;;;29.60;18.30;;;3.50;99.90;;;;;;5079038;28;20470;-26
2021/01/05 07:46:44;;;;;;;31.97;18.30;;;3.50;99.90;;;;;;5080492;28;20540;-26
2021/01/05 07:49:11;;;;;;;28.87;18.57;;;3.50;99.90;;;;;;5078402;28;20442;-27
2021/01/05 07:51:38;;;;;;;30.60;18.13;;;3.50;99.90;;;;;;5083088;27;20461;-27
2021/01/05 07:54:05;;;;;;;25.80;18.80;;;3.50;99.90;;;;;;5084102;28;20434;-28
2021/01/05 07:56:32;;;;;;;30.37;18.43;;;3.50;99.90;;;;;;5091836;27;20541;-27
2021/01/05 07:59:02;;;;;;;29.30;20.37;;;3.50;99.90;;;;;;5085198;27;20438;-27
2021/01/05 08:01:30;;;;;;;26.23;16.90;;;3.60;99.90;;;;;;5085024;27;20451;-26
2021/01/05 08:03:57;;;;;;;28.57;18.77;;;3.60;99.90;;;;;;5082931;28;20467;-26
2021/01/05 08:06:24;;;;;;;22.80;17.63;;;3.60;99.90;;;;;;5097843;27;20693;-27
2021/01/05 08:08:52;;;;;;;26.83;19.10;;;3.70;99.90;;;;;;5116528;27;20460;-27
2021/01/05 08:11:19;;;;;;;29.20;18.97;;;3.70;99.90;;;;;;5121585;27;21384;-27
2021/01/05 08:13:46;;;;;;;26.37;18.20;;;3.80;99.90;;;;;;5120074;27;20449;-27
2021/01/05 08:16:18;;;;;;;30.53;18.23;;;3.80;99.90;;;;;;5121513;27;20445;-27
2021/01/05 08:18:46;;;;;;;28.00;17.90;;;3.90;99.90;;;;;;5120785;27;20445;-27
2021/01/05 08:21:15;;;;;;;22.67;16.37;;;4.00;99.90;;;;;;5117730;27;20572;-27
2021/01/05 08:23:44;;;;;;;25.77;18.10;;;4.00;99.90;;;;;;5121738;27;20433;-27
2021/01/05 08:26:14;;;;;;;30.47;17.97;;;4.00;99.90;;;;;;5121828;27;20445;-27
2021/01/05 08:28:40;;;;;;;26.90;18.43;;;4.00;99.90;;;;;;5114776;27;20548;-26
2021/01/05 08:31:07;;;;;;;27.13;18.70;;;4.00;99.90;;;;;;5124106;27;20601;-28
2021/01/05 08:33:35;;;;;;;22.23;18.60;;;3.90;99.90;;;;;;5112759;27;20437;-27
2021/01/05 08:36:03;;;;;;;28.50;18.87;;;4.00;99.90;;;;;;5120967;27;20441;-27
2021/01/05 08:38:31;;;;;;;22.93;16.90;;;4.00;99.90;;;;;;5122289;27;20424;-27
2021/01/05 08:40:59;;;;;;;25.80;17.43;;;4.00;99.90;;;;;;5102529;27;20565;-28
2021/01/05 08:43:25;;;;;;;28.00;17.63;;;4.10;99.90;;;;;;5093130;28;21088;-28
2021/01/05 08:45:52;;;;;;;24.23;17.37;;;4.10;99.90;;;;;;5098668;28;20445;-28
2021/01/05 08:48:20;;;;;;;24.83;17.07;;;4.10;99.90;;;;;;5098415;28;20454;-28
2021/01/05 08:50:48;;;;;;;26.50;18.60;;;4.10;99.90;;;;;;5093017;28;20450;-27
2021/01/05 08:53:15;;;;;;;26.03;18.67;;;4.10;99.90;;;;;;5096638;27;20466;-28
2021/01/05 08:55:43;;;;;;;28.10;18.90;;;4.10;99.90;;;;;;5098166;27;21300;-28
2021/01/05 08:58:11;;;;;;;24.80;17.13;;;4.10;99.90;;;;;;5091984;27;20620;-27
2021/01/05 09:00:38;;;;;;;23.20;17.40;;;4.10;99.90;;;;;;5096439;27;20439;-28
2021/01/05 09:03:07;;;;;;;25.57;17.40;;;4.10;99.90;;;;;;5105996;27;20451;-27
2021/01/05 09:05:35;;;;;;;24.07;17.60;;;4.20;99.90;;;;;;5108246;27;20442;-28
2021/01/05 09:08:03;;;;;;;24.70;17.60;;;4.20;99.90;;;;;;5098414;27;20490;-29
2021/01/05 09:10:30;;;;;;;25.90;18.70;;;4.20;99.90;;;;;;5097024;27;20472;-28
2021/01/05 09:12:57;;;;;;;28.27;20.30;;;4.30;99.90;;;;;;5104192;27;20462;-28
2021/01/05 09:15:24;;;;;;;29.93;19.60;;;4.40;99.90;;;;;;5102830;27;21132;-28
2021/01/05 09:17:51;;;;;;;28.40;21.50;;;4.30;99.90;;;;;;5120105;27;21274;-28
2021/01/05 09:20:21;;;;;;;25.30;18.33;;;4.30;99.90;;;;;;5123628;27;20438;-28
2021/01/05 09:22:49;;;;;;;26.80;19.63;;;4.40;99.90;;;;;;5092090;27;20501;-28
2021/01/05 09:25:22;;;;;;;22.37;17.23;;;4.30;99.90;;;;;;5102357;27;20472;-27
2021/01/05 09:27:51;;;;;;;24.70;17.57;;;4.30;99.90;;;;;;5101218;27;20562;-28
2021/01/05 09:30:23;;;;;;;34.00;18.10;;;4.20;99.90;;;;;;5099507;27;21324;-30
2021/01/05 09:32:53;;;;;;;26.33;18.47;;;4.30;99.90;;;;;;5103440;27;20441;-28
2021/01/05 09:35:21;;;;;;;34.03;20.30;;;4.20;99.90;;;;;;5103003;27;20477;-28
2021/01/05 09:37:53;;;;;;;32.27;19.30;;;4.20;99.90;;;;;;5099991;27;20457;-28
2021/01/05 09:40:21;;;;;;;25.40;18.30;;;4.30;99.90;;;;;;5101150;27;20548;-28
2021/01/05 09:42:49;;;;;;;31.47;19.83;;;4.40;99.90;;;;;;5097543;27;20441;-28
2021/01/05 09:45:16;;;;;;;26.60;18.60;;;4.40;99.90;;;;;;5099171;27;20446;-28
2021/01/05 09:47:43;;;;;;;29.00;19.63;;;4.30;99.90;;;;;;5098772;27;21147;-28
2021/01/05 09:50:12;;;;;;;28.87;18.10;;;4.30;99.90;;;;;;5101936;27;20453;-28
2021/01/05 09:52:40;;;;;;;25.43;17.10;;;4.30;99.90;;;;;;5092512;27;20462;-27
2021/01/05 09:55:08;;;;;;;27.53;17.50;;;4.40;99.90;;;;;;5080146;28;20561;-28
2021/01/05 09:57:39;;;;;;;26.90;19.87;;;4.50;99.90;;;;;;5086450;27;20525;-28
2021/01/05 10:00:09;;;;;;;26.70;19.60;;;4.50;99.90;;;;;;5096662;27;21008;-28
2021/01/05 10:02:37;;;;;;;29.93;19.50;;;4.60;99.90;;;;;;5099687;27;20759;-28
2021/01/05 10:05:06;;;;;;;24.67;17.50;;;4.60;99.90;;;;;;5102943;27;20450;-28
2021/01/05 10:07:33;;;;;;;27.47;17.87;;;4.60;99.90;;;;;;5102977;27;20560;-28
2021/01/05 10:10:01;;;;;;;34.30;21.47;;;4.70;99.90;;;;;;5104008;27;20445;-28
2021/01/05 10:12:28;;;;;;;26.70;19.00;;;4.80;99.90;;;;;;5101591;27;20924;-28
2021/01/05 10:14:56;;;;;;;29.67;20.30;;;4.80;99.90;;;;;;5105188;27;20556;-28
2021/01/05 10:17:25;;;;;;;33.90;21.77;;;4.90;99.90;;;;;;5101413;27;20541;-27
2021/01/05 10:19:52;;;;;;;32.93;20.93;;;4.90;99.90;;;;;;5100186;27;20946;-28
2021/01/05 10:22:19;;;;;;;37.53;21.70;;;5.00;99.90;;;;;;5102033;27;20512;-28
2021/01/05 10:24:45;;;;;;;32.90;20.20;;;5.00;99.90;;;;;;5099500;27;20434;-30
2021/01/05 10:27:12;;;;;;;34.63;20.03;;;5.00;99.90;;;;;;5104016;27;20466;-27
2021/01/05 10:29:39;;;;;;;37.93;22.87;;;5.10;99.90;;;;;;5103127;27;20526;-28
2021/01/05 10:32:06;;;;;;;36.90;20.33;;;5.10;99.90;;;;;;5098634;27;21445;-28
2021/01/05 10:34:33;;;;;;;38.10;23.27;;;5.10;99.90;;;;;;5099336;27;20526;-27
2021/01/05 10:37:00;;;;;;;33.57;21.53;;;5.20;99.90;;;;;;5081176;27;20442;-28
2021/01/05 10:39:29;;;;;;;30.80;21.40;;;5.20;99.90;;;;;;5097689;27;20518;-28
2021/01/05 10:41:56;;;;;;;31.07;22.13;;;5.20;99.90;;;;;;5100817;27;20446;-28
2021/01/05 10:44:23;;;;;;;33.90;21.20;;;5.30;99.90;;;;;;5100298;27;20446;-27
2021/01/05 10:46:55;;;;;;;44.57;27.57;;;5.30;99.90;;;;;;5096954;27;21198;-28
2021/01/05 10:49:23;;;;;;;34.63;22.87;;;5.30;99.90;;;;;;5099883;27;20790;-27
2021/01/05 10:51:51;;;;;;;35.23;22.97;;;5.30;99.90;;;;;;5101094;27;20453;-28
2021/01/05 10:54:19;;;;;;;35.63;22.97;;;5.30;99.90;;;;;;5101164;27;20442;-28
2021/01/05 10:56:46;;;;;;;34.60;20.93;;;5.40;99.90;;;;;;5095757;27;20442;-27
2021/01/05 10:59:14;;;;;;;33.87;21.43;;;5.30;99.90;;;;;;5099679;27;20937;-28
2021/01/05 11:01:40;;;;;;;27.87;20.53;;;5.30;99.90;;;;;;5095141;27;20451;-28
2021/01/05 11:04:07;;;;;;;29.67;21.20;;;5.40;99.90;;;;;;5098203;27;20504;-28
2021/01/05 11:06:35;;;;;;;27.70;19.00;;;5.20;99.90;;;;;;5093934;27;20521;-28
2021/01/05 11:09:02;;;;;;;32.87;21.90;;;5.20;99.90;;;;;;5098884;27;20434;-28
2021/01/05 11:11:29;;;;;;;31.17;20.97;;;5.30;99.90;;;;;;5098992;27;20560;-27
2021/01/05 11:13:56;;;;;;;34.20;23.27;;;5.30;99.90;;;;;;5100732;27;20457;-28
2021/01/05 11:16:24;;;;;;;32.50;20.53;;;5.20;99.90;;;;;;5096476;27;20516;-28
2021/01/05 11:18:51;;;;;;;29.80;20.73;;;5.20;99.90;;;;;;5095150;27;20863;-28
2021/01/05 11:21:19;;;;;;;34.90;22.57;;;5.20;99.90;;;;;;5098058;27;20572;-28
2021/01/05 11:23:47;;;;;;;38.30;21.93;;;5.20;99.90;;;;;;5100429;27;20438;-28
2021/01/05 11:26:16;;;;;;;31.30;19.97;;;5.30;99.90;;;;;;5098708;27;20812;-28
2021/01/05 11:28:43;;;;;;;27.60;20.17;;;5.40;99.90;;;;;;5089465;27;20490;-30
2021/01/05 11:31:12;;;;;;;28.07;19.37;;;5.50;99.90;;;;;;5070639;27;21387;-28
2021/01/05 11:33:39;;;;;;;27.87;20.50;;;5.50;99.90;;;;;;5103633;27;20469;-28
2021/01/05 11:36:07;;;;;;;29.87;20.83;;;5.60;99.90;;;;;;5101224;27;20453;-28
2021/01/05 11:38:33;;;;;;;29.60;20.37;;;5.60;99.90;;;;;;5099409;27;20508;-28
2021/01/05 11:41:01;;;;;;;28.10;21.00;;;5.50;99.90;;;;;;5107427;27;20454;-28
2021/01/05 11:43:29;;;;;;;34.67;19.93;;;5.60;99.90;;;;;;5100824;27;20549;-28
2021/01/05 11:45:56;;;;;;;29.00;19.87;;;5.60;99.90;;;;;;5101712;27;20446;-28
2021/01/05 11:48:23;;;;;;;26.97;20.43;;;5.60;99.90;;;;;;5107102;27;20464;-28
2021/01/05 11:50:49;;;;;;;29.00;20.67;;;5.60;99.90;;;;;;5117335;27;20430;-30
2021/01/05 11:53:16;;;;;;;29.23;19.57;;;5.60;99.90;;;;;;5094162;27;20461;-27
2021/01/05 11:55:43;;;;;;;36.40;21.30;;;5.60;99.90;;;;;;5104136;27;20664;-28
2021/01/05 11:58:12;;;;;;;38.50;23.87;;;5.60;99.90;;;;;;5094430;27;20831;-28
2021/01/05 12:00:41;;;;;;;29.20;19.80;;;5.50;99.90;;;;;;5103756;27;20445;-28
2021/01/05 12:03:10;;;;;;;33.07;21.13;;;5.50;99.90;;;;;;5102894;27;20426;-28
2021/01/05 12:05:37;;;;;;;30.83;20.17;;;5.50;99.90;;;;;;5089869;28;20502;-28
2021/01/05 12:08:04;;;;;;;26.63;18.40;;;5.60;99.90;;;;;;5092530;28;20462;-29
2021/01/05 12:10:31;;;;;;;28.80;20.00;;;5.50;99.90;;;;;;5088909;28;20789;-28
2021/01/05 12:12:57;;;;;;;28.73;18.67;;;5.50;99.90;;;;;;5091985;28;20815;-28
2021/01/05 12:15:25;;;;;;;32.40;19.50;;;5.40;99.90;;;;;;5090843;28;21102;-29
2021/01/05 12:17:52;;;;;;;30.50;20.03;;;5.40;99.90;;;;;;5092882;28;20718;-28
2021/01/05 12:20:18;;;;;;;29.77;18.20;;;5.40;99.90;;;;;;5094072;28;20559;-28
2021/01/05 12:22:45;;;;;;;28.57;20.47;;;5.30;99.90;;;;;;5094549;28;20731;-27
2021/01/05 12:25:13;;;;;;;27.03;19.60;;;5.20;99.90;;;;;;5093330;28;20494;-28
2021/01/05 12:27:39;;;;;;;27.70;18.87;;;5.10;99.90;;;;;;5094880;28;20466;-29
2021/01/05 12:30:07;;;;;;;26.03;17.33;;;5.10;99.90;;;;;;5095094;28;20506;-28
2021/01/05 12:32:34;;;;;;;30.27;17.23;;;5.00;99.90;;;;;;5089624;28;20454;-28
2021/01/05 12:35:01;;;;;;;33.37;18.00;;;5.00;99.90;;;;;;5092675;27;20881;-27
2021/01/05 12:37:28;;;;;;;28.77;18.33;;;5.10;99.90;;;;;;5096281;27;20520;-28
2021/01/05 12:39:55;;;;;;;25.83;16.37;;;5.10;99.90;;;;;;5094568;27;20485;-28
2021/01/05 12:42:24;;;;;;;28.77;18.83;;;5.10;99.90;;;;;;5097285;27;20452;-28
2021/01/05 12:44:52;;;;;;;32.93;18.40;;;5.20;99.90;;;;;;5094839;27;20478;-27
2021/01/05 12:47:19;;;;;;;29.93;19.87;;;5.20;99.90;;;;;;5093462;27;20716;-29
2021/01/05 12:49:47;;;;;;;28.00;18.60;;;5.20;99.90;;;;;;5096785;27;20445;-28
2021/01/05 12:52:14;;;;;;;33.97;20.63;;;5.20;99.90;;;;;;5094792;27;20478;-29
2021/01/05 12:54:42;;;;;;;31.70;19.30;;;5.20;99.90;;;;;;5095267;27;20445;-29
2021/01/05 12:57:12;;;;;;;28.33;20.20;;;5.10;99.90;;;;;;5097414;27;20510;-28
2021/01/05 12:59:41;;;;;;;30.50;19.53;;;5.00;99.90;;;;;;5098184;27;20560;-28
2021/01/05 13:02:14;;;;;;;29.33;20.90;;;4.90;99.90;;;;;;5075824;27;20860;-28
2021/01/05 13:04:40;;;;;;;31.60;19.13;;;4.90;99.90;;;;;;5102674;27;20785;-28